sensor_id;sensor_type;location;lat;lon;timestamp;P1;durP1;ratioP1;P2;durP2;ratioP2
43771;SDS011;59066;54.782;32.024;2022-08-03T00:00:29;5.43;;;4.93;;
43771;SDS011;59066;54.782;32.024;2022-08-03T00:02:56;5.40;;;3.65;;
43771;SDS011;59066;54.782;32.024;2022-08-03T00:05:24;6.38;;;4.55;;
43771;SDS011;59066;54.782;32.024;2022-08-03T00:07:51;7.30;;;4.45;;
43771;SDS011;59066;54.782;32.024;2022-08-03T00:10:19;5.40;;;4.10;;
43771;SDS011;59066;54.782;32.024;2022-08-03T00:12:46;6.68;;;4.40;;
43771;SDS011;59066;54.782;32.024;2022-08-03T00:15:14;6.28;;;4.28;;
43771;SDS011;59066;54.782;32.024;2022-08-03T00:17:42;5.60;;;4.18;;
43771;SDS011;59066;54.782;32.024;2022-08-03T00:22:45;5.72;;;4.05;;
43771;SDS011;59066;54.782;32.024;2022-08-03T00:25:13;4.93;;;4.03;;
43771;SDS011;59066;54.782;32.024;2022-08-03T00:27:40;6.57;;;3.92;;
43771;SDS011;59066;54.782;32.024;2022-08-03T00:30:08;6.68;;;4.40;;
43771;SDS011;59066;54.782;32.024;2022-08-03T00:32:35;8.25;;;4.85;;
43771;SDS011;59066;54.782;32.024;2022-08-03T00:35:04;7.10;;;4.40;;
43771;SDS011;59066;54.782;32.024;2022-08-03T00:37:34;8.27;;;4.43;;
43771;SDS011;59066;54.782;32.024;2022-08-03T00:40:06;7.20;;;4.90;;
43771;SDS011;59066;54.782;32.024;2022-08-03T00:42:44;7.05;;;4.82;;
43771;SDS011;59066;54.782;32.024;2022-08-03T00:45:13;4.78;;;4.22;;
43771;SDS011;59066;54.782;32.024;2022-08-03T00:47:40;4.30;;;3.88;;
43771;SDS011;59066;54.782;32.024;2022-08-03T00:50:08;5.53;;;4.13;;
43771;SDS011;59066;54.782;32.024;2022-08-03T00:52:35;5.50;;;4.50;;
43771;SDS011;59066;54.782;32.024;2022-08-03T00:55:03;4.85;;;4.35;;
43771;SDS011;59066;54.782;32.024;2022-08-03T00:57:31;4.88;;;3.70;;
43771;SDS011;59066;54.782;32.024;2022-08-03T01:00:15;8.18;;;4.65;;
43771;SDS011;59066;54.782;32.024;2022-08-03T01:02:48;5.13;;;4.20;;
43771;SDS011;59066;54.782;32.024;2022-08-03T01:05:16;5.82;;;4.45;;
43771;SDS011;59066;54.782;32.024;2022-08-03T01:08:01;6.13;;;4.30;;
43771;SDS011;59066;54.782;32.024;2022-08-03T01:10:46;6.65;;;4.43;;
43771;SDS011;59066;54.782;32.024;2022-08-03T01:16:31;5.93;;;4.30;;
43771;SDS011;59066;54.782;32.024;2022-08-03T01:31:05;7.07;;;4.97;;
43771;SDS011;59066;54.782;32.024;2022-08-03T01:33:35;6.72;;;5.15;;
43771;SDS011;59066;54.782;32.024;2022-08-03T01:36:22;5.95;;;4.80;;
43771;SDS011;59066;54.782;32.024;2022-08-03T01:38:56;5.45;;;4.60;;
43771;SDS011;59066;54.782;32.024;2022-08-03T01:41:31;11.57;;;5.63;;
43771;SDS011;59066;54.782;32.024;2022-08-03T01:44:01;6.07;;;4.50;;
43771;SDS011;59066;54.782;32.024;2022-08-03T01:46:50;7.32;;;5.03;;
43771;SDS011;59066;54.782;32.024;2022-08-03T01:49:18;6.15;;;5.07;;
43771;SDS011;59066;54.782;32.024;2022-08-03T01:51:47;7.50;;;4.97;;
43771;SDS011;59066;54.782;32.024;2022-08-03T01:54:23;6.43;;;4.70;;
43771;SDS011;59066;54.782;32.024;2022-08-03T01:56:52;5.43;;;4.60;;
43771;SDS011;59066;54.782;32.024;2022-08-03T01:59:22;5.47;;;4.22;;
43771;SDS011;59066;54.782;32.024;2022-08-03T02:01:52;6.05;;;4.50;;
43771;SDS011;59066;54.782;32.024;2022-08-03T02:04:41;6.05;;;4.80;;
43771;SDS011;59066;54.782;32.024;2022-08-03T02:07:09;6.50;;;4.47;;
43771;SDS011;59066;54.782;32.024;2022-08-03T02:09:38;5.85;;;4.35;;
43771;SDS011;59066;54.782;32.024;2022-08-03T02:12:07;5.00;;;4.47;;
43771;SDS011;59066;54.782;32.024;2022-08-03T02:14:37;7.82;;;5.13;;
43771;SDS011;59066;54.782;32.024;2022-08-03T02:17:06;7.88;;;4.57;;
43771;SDS011;59066;54.782;32.024;2022-08-03T02:19:34;6.22;;;4.97;;
43771;SDS011;59066;54.782;32.024;2022-08-03T02:22:03;7.03;;;4.72;;
43771;SDS011;59066;54.782;32.024;2022-08-03T02:24:31;6.75;;;4.60;;
43771;SDS011;59066;54.782;32.024;2022-08-03T02:26:59;9.10;;;4.75;;
43771;SDS011;59066;54.782;32.024;2022-08-03T02:29:31;5.85;;;4.28;;
43771;SDS011;59066;54.782;32.024;2022-08-03T02:32:06;9.45;;;5.63;;
43771;SDS011;59066;54.782;32.024;2022-08-03T02:34:37;5.57;;;5.05;;
43771;SDS011;59066;54.782;32.024;2022-08-03T02:37:08;10.85;;;4.90;;
43771;SDS011;59066;54.782;32.024;2022-08-03T02:39:37;5.03;;;4.47;;
43771;SDS011;59066;54.782;32.024;2022-08-03T02:42:07;7.45;;;4.88;;
43771;SDS011;59066;54.782;32.024;2022-08-03T02:44:37;5.85;;;4.53;;
43771;SDS011;59066;54.782;32.024;2022-08-03T02:47:06;7.63;;;4.70;;
43771;SDS011;59066;54.782;32.024;2022-08-03T02:49:37;8.85;;;5.03;;
43771;SDS011;59066;54.782;32.024;2022-08-03T02:52:18;12.55;;;5.47;;
43771;SDS011;59066;54.782;32.024;2022-08-03T02:54:48;5.93;;;4.88;;
43771;SDS011;59066;54.782;32.024;2022-08-03T02:57:19;8.07;;;5.20;;
43771;SDS011;59066;54.782;32.024;2022-08-03T02:59:48;8.95;;;6.00;;
43771;SDS011;59066;54.782;32.024;2022-08-03T03:05:13;5.95;;;5.35;;
43771;SDS011;59066;54.782;32.024;2022-08-03T03:08:01;9.20;;;5.47;;
43771;SDS011;59066;54.782;32.024;2022-08-03T03:10:29;5.93;;;4.68;;
43771;SDS011;59066;54.782;32.024;2022-08-03T03:12:57;6.93;;;5.25;;
43771;SDS011;59066;54.782;32.024;2022-08-03T03:15:26;8.10;;;5.00;;
43771;SDS011;59066;54.782;32.024;2022-08-03T03:17:55;9.60;;;5.18;;
43771;SDS011;59066;54.782;32.024;2022-08-03T03:20:24;6.13;;;4.57;;
43771;SDS011;59066;54.782;32.024;2022-08-03T03:22:57;9.07;;;5.60;;
43771;SDS011;59066;54.782;32.024;2022-08-03T03:25:29;7.43;;;5.30;;
43771;SDS011;59066;54.782;32.024;2022-08-03T03:30:26;8.77;;;5.40;;
43771;SDS011;59066;54.782;32.024;2022-08-03T03:32:54;6.72;;;5.13;;
43771;SDS011;59066;54.782;32.024;2022-08-03T03:35:23;9.25;;;4.90;;
43771;SDS011;59066;54.782;32.024;2022-08-03T03:37:52;12.02;;;5.85;;
43771;SDS011;59066;54.782;32.024;2022-08-03T03:40:20;7.32;;;5.43;;
43771;SDS011;59066;54.782;32.024;2022-08-03T03:42:48;10.30;;;5.47;;
43771;SDS011;59066;54.782;32.024;2022-08-03T03:45:16;6.82;;;5.13;;
43771;SDS011;59066;54.782;32.024;2022-08-03T03:47:44;7.88;;;5.47;;
43771;SDS011;59066;54.782;32.024;2022-08-03T03:50:12;8.13;;;6.25;;
43771;SDS011;59066;54.782;32.024;2022-08-03T03:52:41;8.80;;;6.45;;
43771;SDS011;59066;54.782;32.024;2022-08-03T03:55:09;8.10;;;5.65;;
43771;SDS011;59066;54.782;32.024;2022-08-03T03:57:36;8.93;;;5.38;;
43771;SDS011;59066;54.782;32.024;2022-08-03T04:00:04;10.70;;;5.55;;
43771;SDS011;59066;54.782;32.024;2022-08-03T04:02:32;7.88;;;5.57;;
43771;SDS011;59066;54.782;32.024;2022-08-03T04:04:59;10.35;;;5.35;;
43771;SDS011;59066;54.782;32.024;2022-08-03T04:07:46;9.50;;;5.27;;
43771;SDS011;59066;54.782;32.024;2022-08-03T04:11:01;7.82;;;5.68;;
43771;SDS011;59066;54.782;32.024;2022-08-03T04:13:56;11.13;;;5.60;;
43771;SDS011;59066;54.782;32.024;2022-08-03T04:16:29;12.30;;;5.22;;
43771;SDS011;59066;54.782;32.024;2022-08-03T04:22:11;9.68;;;5.70;;
43771;SDS011;59066;54.782;32.024;2022-08-03T04:24:43;8.07;;;5.80;;
43771;SDS011;59066;54.782;32.024;2022-08-03T04:27:14;10.98;;;6.00;;
43771;SDS011;59066;54.782;32.024;2022-08-03T04:29:47;11.48;;;5.97;;
43771;SDS011;59066;54.782;32.024;2022-08-03T04:32:15;9.60;;;5.93;;
43771;SDS011;59066;54.782;32.024;2022-08-03T04:34:43;11.60;;;5.90;;
43771;SDS011;59066;54.782;32.024;2022-08-03T04:37:13;12.80;;;5.90;;
43771;SDS011;59066;54.782;32.024;2022-08-03T04:39:46;22.00;;;14.98;;
43771;SDS011;59066;54.782;32.024;2022-08-03T04:42:16;9.77;;;5.80;;
43771;SDS011;59066;54.782;32.024;2022-08-03T04:44:47;13.65;;;6.88;;
43771;SDS011;59066;54.782;32.024;2022-08-03T04:47:15;13.25;;;9.52;;
43771;SDS011;59066;54.782;32.024;2022-08-03T04:49:42;14.75;;;5.78;;
43771;SDS011;59066;54.782;32.024;2022-08-03T04:52:10;11.80;;;7.13;;
43771;SDS011;59066;54.782;32.024;2022-08-03T04:54:38;8.68;;;5.88;;
43771;SDS011;59066;54.782;32.024;2022-08-03T04:57:07;15.77;;;8.38;;
43771;SDS011;59066;54.782;32.024;2022-08-03T04:59:36;11.57;;;6.40;;
43771;SDS011;59066;54.782;32.024;2022-08-03T05:02:06;10.70;;;7.03;;
43771;SDS011;59066;54.782;32.024;2022-08-03T05:04:33;9.20;;;5.90;;
43771;SDS011;59066;54.782;32.024;2022-08-03T05:07:01;11.32;;;6.88;;
43771;SDS011;59066;54.782;32.024;2022-08-03T05:09:37;9.20;;;6.40;;
43771;SDS011;59066;54.782;32.024;2022-08-03T05:12:16;16.35;;;7.03;;
43771;SDS011;59066;54.782;32.024;2022-08-03T05:14:43;10.93;;;5.50;;
43771;SDS011;59066;54.782;32.024;2022-08-03T05:17:11;17.88;;;7.22;;
43771;SDS011;59066;54.782;32.024;2022-08-03T05:19:38;6.93;;;5.75;;
43771;SDS011;59066;54.782;32.024;2022-08-03T05:22:06;23.00;;;6.80;;
43771;SDS011;59066;54.782;32.024;2022-08-03T05:24:33;13.15;;;5.90;;
43771;SDS011;59066;54.782;32.024;2022-08-03T05:27:01;9.38;;;6.15;;
43771;SDS011;59066;54.782;32.024;2022-08-03T05:29:28;8.52;;;6.05;;
43771;SDS011;59066;54.782;32.024;2022-08-03T05:31:55;13.07;;;6.55;;
43771;SDS011;59066;54.782;32.024;2022-08-03T05:34:23;17.50;;;7.18;;
43771;SDS011;59066;54.782;32.024;2022-08-03T05:36:50;11.65;;;5.63;;
43771;SDS011;59066;54.782;32.024;2022-08-03T05:39:18;15.75;;;6.10;;
43771;SDS011;59066;54.782;32.024;2022-08-03T05:41:45;15.77;;;6.63;;
43771;SDS011;59066;54.782;32.024;2022-08-03T05:44:14;9.95;;;6.13;;
43771;SDS011;59066;54.782;32.024;2022-08-03T05:46:41;26.52;;;7.20;;
43771;SDS011;59066;54.782;32.024;2022-08-03T05:49:09;11.70;;;7.97;;
43771;SDS011;59066;54.782;32.024;2022-08-03T05:51:36;13.57;;;6.35;;
43771;SDS011;59066;54.782;32.024;2022-08-03T05:54:04;14.15;;;5.90;;
43771;SDS011;59066;54.782;32.024;2022-08-03T05:56:31;12.10;;;5.93;;
43771;SDS011;59066;54.782;32.024;2022-08-03T05:58:59;15.98;;;6.60;;
43771;SDS011;59066;54.782;32.024;2022-08-03T06:01:41;8.30;;;5.57;;
43771;SDS011;59066;54.782;32.024;2022-08-03T06:04:09;10.65;;;5.95;;
43771;SDS011;59066;54.782;32.024;2022-08-03T06:06:36;12.43;;;6.65;;
43771;SDS011;59066;54.782;32.024;2022-08-03T06:09:04;12.30;;;6.07;;
43771;SDS011;59066;54.782;32.024;2022-08-03T06:11:31;10.75;;;4.85;;
43771;SDS011;59066;54.782;32.024;2022-08-03T06:13:59;11.90;;;5.93;;
43771;SDS011;59066;54.782;32.024;2022-08-03T06:16:27;10.52;;;5.60;;
43771;SDS011;59066;54.782;32.024;2022-08-03T06:18:55;9.80;;;5.10;;
43771;SDS011;59066;54.782;32.024;2022-08-03T06:21:49;9.40;;;7.07;;
43771;SDS011;59066;54.782;32.024;2022-08-03T06:24:16;7.07;;;5.35;;
43771;SDS011;59066;54.782;32.024;2022-08-03T06:26:44;12.88;;;5.70;;
43771;SDS011;59066;54.782;32.024;2022-08-03T06:29:12;16.67;;;7.18;;
43771;SDS011;59066;54.782;32.024;2022-08-03T06:31:39;11.93;;;6.95;;
43771;SDS011;59066;54.782;32.024;2022-08-03T06:34:06;12.18;;;5.97;;
43771;SDS011;59066;54.782;32.024;2022-08-03T06:36:54;10.63;;;5.43;;
43771;SDS011;59066;54.782;32.024;2022-08-03T06:39:27;13.40;;;10.43;;
43771;SDS011;59066;54.782;32.024;2022-08-03T06:42:32;11.07;;;5.22;;
43771;SDS011;59066;54.782;32.024;2022-08-03T06:45:00;12.52;;;5.40;;
43771;SDS011;59066;54.782;32.024;2022-08-03T06:47:29;11.48;;;5.60;;
43771;SDS011;59066;54.782;32.024;2022-08-03T06:49:56;11.15;;;5.47;;
43771;SDS011;59066;54.782;32.024;2022-08-03T06:52:38;9.18;;;5.30;;
43771;SDS011;59066;54.782;32.024;2022-08-03T06:55:06;10.13;;;5.28;;
43771;SDS011;59066;54.782;32.024;2022-08-03T06:57:33;8.45;;;4.95;;
43771;SDS011;59066;54.782;32.024;2022-08-03T07:00:01;8.50;;;4.80;;
43771;SDS011;59066;54.782;32.024;2022-08-03T07:02:34;7.03;;;4.72;;
43771;SDS011;59066;54.782;32.024;2022-08-03T07:05:01;7.15;;;4.80;;
43771;SDS011;59066;54.782;32.024;2022-08-03T07:07:29;8.95;;;5.30;;
43771;SDS011;59066;54.782;32.024;2022-08-03T07:09:58;16.83;;;6.03;;
43771;SDS011;59066;54.782;32.024;2022-08-03T07:12:47;10.40;;;4.53;;
43771;SDS011;59066;54.782;32.024;2022-08-03T07:15:18;8.43;;;4.85;;
43771;SDS011;59066;54.782;32.024;2022-08-03T07:18:06;10.73;;;6.05;;
43771;SDS011;59066;54.782;32.024;2022-08-03T07:20:35;9.90;;;5.53;;
43771;SDS011;59066;54.782;32.024;2022-08-03T07:23:03;7.20;;;5.53;;
43771;SDS011;59066;54.782;32.024;2022-08-03T07:25:30;28.02;;;5.90;;
43771;SDS011;59066;54.782;32.024;2022-08-03T07:27:58;7.22;;;4.95;;
43771;SDS011;59066;54.782;32.024;2022-08-03T07:30:25;14.82;;;5.97;;
43771;SDS011;59066;54.782;32.024;2022-08-03T07:33:06;5.95;;;4.68;;
43771;SDS011;59066;54.782;32.024;2022-08-03T07:35:33;16.02;;;5.15;;
43771;SDS011;59066;54.782;32.024;2022-08-03T07:38:01;11.20;;;6.10;;
43771;SDS011;59066;54.782;32.024;2022-08-03T07:40:29;9.98;;;5.60;;
43771;SDS011;59066;54.782;32.024;2022-08-03T07:42:57;6.15;;;5.32;;
43771;SDS011;59066;54.782;32.024;2022-08-03T07:45:25;16.05;;;6.47;;
43771;SDS011;59066;54.782;32.024;2022-08-03T07:47:53;10.55;;;6.50;;
43771;SDS011;59066;54.782;32.024;2022-08-03T07:50:21;9.10;;;5.10;;
43771;SDS011;59066;54.782;32.024;2022-08-03T07:52:52;8.23;;;5.05;;
43771;SDS011;59066;54.782;32.024;2022-08-03T07:55:23;11.00;;;5.13;;
43771;SDS011;59066;54.782;32.024;2022-08-03T08:00:49;9.10;;;5.28;;
43771;SDS011;59066;54.782;32.024;2022-08-03T08:03:19;10.00;;;5.95;;
43771;SDS011;59066;54.782;32.024;2022-08-03T08:05:47;11.18;;;5.28;;
43771;SDS011;59066;54.782;32.024;2022-08-03T08:08:15;11.00;;;5.22;;
43771;SDS011;59066;54.782;32.024;2022-08-03T08:10:43;11.27;;;5.00;;
43771;SDS011;59066;54.782;32.024;2022-08-03T08:13:22;9.25;;;5.28;;
43771;SDS011;59066;54.782;32.024;2022-08-03T08:15:50;12.73;;;4.80;;
43771;SDS011;59066;54.782;32.024;2022-08-03T08:18:17;7.82;;;4.38;;
43771;SDS011;59066;54.782;32.024;2022-08-03T08:20:45;7.55;;;4.20;;
43771;SDS011;59066;54.782;32.024;2022-08-03T08:23:12;8.55;;;4.20;;
43771;SDS011;59066;54.782;32.024;2022-08-03T08:25:53;10.60;;;4.80;;
43771;SDS011;59066;54.782;32.024;2022-08-03T08:28:22;6.03;;;4.10;;
43771;SDS011;59066;54.782;32.024;2022-08-03T08:30:59;8.65;;;3.83;;
43771;SDS011;59066;54.782;32.024;2022-08-03T08:33:27;6.35;;;3.83;;
43771;SDS011;59066;54.782;32.024;2022-08-03T08:36:20;6.05;;;3.72;;
43771;SDS011;59066;54.782;32.024;2022-08-03T08:38:48;5.90;;;3.65;;
43771;SDS011;59066;54.782;32.024;2022-08-03T08:41:15;6.95;;;3.95;;
43771;SDS011;59066;54.782;32.024;2022-08-03T08:43:43;7.80;;;3.78;;
43771;SDS011;59066;54.782;32.024;2022-08-03T08:46:13;8.13;;;3.92;;
43771;SDS011;59066;54.782;32.024;2022-08-03T08:48:49;5.75;;;3.60;;
43771;SDS011;59066;54.782;32.024;2022-08-03T08:51:19;6.72;;;3.80;;
43771;SDS011;59066;54.782;32.024;2022-08-03T08:53:51;7.82;;;3.78;;
43771;SDS011;59066;54.782;32.024;2022-08-03T08:56:19;4.53;;;3.67;;
43771;SDS011;59066;54.782;32.024;2022-08-03T08:58:51;8.60;;;3.95;;
43771;SDS011;59066;54.782;32.024;2022-08-03T09:01:26;11.45;;;4.80;;
43771;SDS011;59066;54.782;32.024;2022-08-03T09:03:55;9.30;;;3.70;;
43771;SDS011;59066;54.782;32.024;2022-08-03T09:06:23;9.07;;;3.92;;
43771;SDS011;59066;54.782;32.024;2022-08-03T09:08:51;7.70;;;3.70;;
43771;SDS011;59066;54.782;32.024;2022-08-03T09:11:21;6.13;;;3.40;;
43771;SDS011;59066;54.782;32.024;2022-08-03T09:14:10;4.15;;;3.20;;
43771;SDS011;59066;54.782;32.024;2022-08-03T09:16:58;5.88;;;3.95;;
43771;SDS011;59066;54.782;32.024;2022-08-03T09:19:30;7.30;;;3.70;;
43771;SDS011;59066;54.782;32.024;2022-08-03T09:24:52;4.65;;;3.63;;
43771;SDS011;59066;54.782;32.024;2022-08-03T09:27:43;7.63;;;4.03;;
43771;SDS011;59066;54.782;32.024;2022-08-03T09:30:13;7.80;;;3.83;;
43771;SDS011;59066;54.782;32.024;2022-08-03T09:33:01;7.40;;;3.58;;
43771;SDS011;59066;54.782;32.024;2022-08-03T09:35:30;9.57;;;3.80;;
43771;SDS011;59066;54.782;32.024;2022-08-03T09:38:19;5.80;;;3.25;;
43771;SDS011;59066;54.782;32.024;2022-08-03T09:40:50;6.07;;;4.13;;
43771;SDS011;59066;54.782;32.024;2022-08-03T09:43:22;3.75;;;3.35;;
43771;SDS011;59066;54.782;32.024;2022-08-03T09:45:52;6.57;;;4.07;;
43771;SDS011;59066;54.782;32.024;2022-08-03T09:48:35;7.30;;;3.50;;
43771;SDS011;59066;54.782;32.024;2022-08-03T09:51:03;4.55;;;3.53;;
43771;SDS011;59066;54.782;32.024;2022-08-03T09:53:43;6.95;;;3.38;;
43771;SDS011;59066;54.782;32.024;2022-08-03T09:56:23;6.53;;;3.20;;
43771;SDS011;59066;54.782;32.024;2022-08-03T09:59:04;6.22;;;3.42;;
43771;SDS011;59066;54.782;32.024;2022-08-03T10:01:33;8.63;;;3.20;;
43771;SDS011;59066;54.782;32.024;2022-08-03T10:04:01;6.15;;;3.40;;
43771;SDS011;59066;54.782;32.024;2022-08-03T10:07:19;7.32;;;3.20;;
43771;SDS011;59066;54.782;32.024;2022-08-03T10:10:01;7.82;;;3.15;;
43771;SDS011;59066;54.782;32.024;2022-08-03T10:12:49;12.10;;;3.28;;
43771;SDS011;59066;54.782;32.024;2022-08-03T10:15:17;8.02;;;3.80;;
43771;SDS011;59066;54.782;32.024;2022-08-03T10:18:05;8.23;;;3.45;;
43771;SDS011;59066;54.782;32.024;2022-08-03T10:20:36;9.75;;;3.70;;
43771;SDS011;59066;54.782;32.024;2022-08-03T10:23:11;8.25;;;3.30;;
43771;SDS011;59066;54.782;32.024;2022-08-03T10:26:49;6.30;;;3.22;;
43771;SDS011;59066;54.782;32.024;2022-08-03T10:28:41;7.72;;;3.53;;
43771;SDS011;59066;54.782;32.024;2022-08-03T10:31:15;4.40;;;3.05;;
43771;SDS011;59066;54.782;32.024;2022-08-03T10:33:47;7.18;;;3.85;;
43771;SDS011;59066;54.782;32.024;2022-08-03T10:36:21;9.35;;;3.65;;
43771;SDS011;59066;54.782;32.024;2022-08-03T10:38:51;8.93;;;3.53;;
43771;SDS011;59066;54.782;32.024;2022-08-03T10:41:20;7.55;;;2.78;;
43771;SDS011;59066;54.782;32.024;2022-08-03T10:46:39;12.13;;;4.47;;
43771;SDS011;59066;54.782;32.024;2022-08-03T10:49:14;5.75;;;3.40;;
43771;SDS011;59066;54.782;32.024;2022-08-03T10:51:44;7.40;;;3.20;;
43771;SDS011;59066;54.782;32.024;2022-08-03T10:57:46;5.15;;;2.55;;
43771;SDS011;59066;54.782;32.024;2022-08-03T11:00:21;6.18;;;2.92;;
43771;SDS011;59066;54.782;32.024;2022-08-03T11:03:03;6.78;;;2.67;;
43771;SDS011;59066;54.782;32.024;2022-08-03T11:08:24;7.63;;;3.15;;
43771;SDS011;59066;54.782;32.024;2022-08-03T11:10:58;7.07;;;2.60;;
43771;SDS011;59066;54.782;32.024;2022-08-03T11:13:55;9.80;;;2.90;;
43771;SDS011;59066;54.782;32.024;2022-08-03T11:16:25;7.20;;;2.90;;
43771;SDS011;59066;54.782;32.024;2022-08-03T11:19:27;6.57;;;2.88;;
43771;SDS011;59066;54.782;32.024;2022-08-03T11:21:54;3.90;;;2.80;;
43771;SDS011;59066;54.782;32.024;2022-08-03T11:35:23;10.52;;;3.15;;
43771;SDS011;59066;54.782;32.024;2022-08-03T11:40:46;6.75;;;3.65;;
43771;SDS011;59066;54.782;32.024;2022-08-03T11:45:57;7.38;;;3.30;;
43771;SDS011;59066;54.782;32.024;2022-08-03T11:48:39;5.28;;;3.00;;
43771;SDS011;59066;54.782;32.024;2022-08-03T11:53:57;8.52;;;3.00;;
43771;SDS011;59066;54.782;32.024;2022-08-03T11:56:27;4.35;;;2.72;;
43771;SDS011;59066;54.782;32.024;2022-08-03T11:58:56;9.48;;;3.45;;
43771;SDS011;59066;54.782;32.024;2022-08-03T12:01:45;6.65;;;3.20;;
43771;SDS011;59066;54.782;32.024;2022-08-03T12:04:13;6.93;;;3.13;;
43771;SDS011;59066;54.782;32.024;2022-08-03T12:06:59;7.22;;;3.35;;
43771;SDS011;59066;54.782;32.024;2022-08-03T12:09:27;9.43;;;3.30;;
43771;SDS011;59066;54.782;32.024;2022-08-03T12:11:55;5.70;;;3.38;;
43771;SDS011;59066;54.782;32.024;2022-08-03T12:14:26;6.97;;;3.20;;
43771;SDS011;59066;54.782;32.024;2022-08-03T12:19:40;7.63;;;3.80;;
43771;SDS011;59066;54.782;32.024;2022-08-03T12:22:08;7.75;;;3.80;;
43771;SDS011;59066;54.782;32.024;2022-08-03T12:24:40;6.50;;;3.47;;
43771;SDS011;59066;54.782;32.024;2022-08-03T12:27:09;9.40;;;3.83;;
43771;SDS011;59066;54.782;32.024;2022-08-03T12:29:36;8.30;;;3.33;;
43771;SDS011;59066;54.782;32.024;2022-08-03T12:32:04;10.65;;;5.32;;
43771;SDS011;59066;54.782;32.024;2022-08-03T12:34:44;16.23;;;3.85;;
43771;SDS011;59066;54.782;32.024;2022-08-03T12:37:13;10.55;;;3.50;;
43771;SDS011;59066;54.782;32.024;2022-08-03T12:39:49;7.85;;;3.38;;
43771;SDS011;59066;54.782;32.024;2022-08-03T12:42:33;4.75;;;2.75;;
43771;SDS011;59066;54.782;32.024;2022-08-03T12:47:53;8.57;;;3.65;;
43771;SDS011;59066;54.782;32.024;2022-08-03T12:50:26;9.85;;;3.38;;
43771;SDS011;59066;54.782;32.024;2022-08-03T12:52:58;7.63;;;3.10;;
43771;SDS011;59066;54.782;32.024;2022-08-03T12:55:32;5.20;;;3.17;;
43771;SDS011;59066;54.782;32.024;2022-08-03T12:58:06;12.77;;;3.67;;
43771;SDS011;59066;54.782;32.024;2022-08-03T13:00:40;4.47;;;2.88;;
43771;SDS011;59066;54.782;32.024;2022-08-03T13:03:09;4.13;;;2.88;;
43771;SDS011;59066;54.782;32.024;2022-08-03T13:05:56;12.10;;;3.10;;
43771;SDS011;59066;54.782;32.024;2022-08-03T13:08:26;7.65;;;3.10;;
43771;SDS011;59066;54.782;32.024;2022-08-03T13:10:54;8.55;;;3.38;;
43771;SDS011;59066;54.782;32.024;2022-08-03T13:13:37;5.82;;;3.28;;
43771;SDS011;59066;54.782;32.024;2022-08-03T13:16:06;8.95;;;3.38;;
43771;SDS011;59066;54.782;32.024;2022-08-03T13:18:35;11.38;;;3.63;;
43771;SDS011;59066;54.782;32.024;2022-08-03T13:21:02;11.63;;;3.83;;
43771;SDS011;59066;54.782;32.024;2022-08-03T13:23:31;4.75;;;3.05;;
43771;SDS011;59066;54.782;32.024;2022-08-03T13:25:58;12.63;;;3.85;;
43771;SDS011;59066;54.782;32.024;2022-08-03T13:28:26;8.18;;;4.07;;
43771;SDS011;59066;54.782;32.024;2022-08-03T13:30:54;11.75;;;4.07;;
43771;SDS011;59066;54.782;32.024;2022-08-03T13:33:22;7.95;;;4.38;;
43771;SDS011;59066;54.782;32.024;2022-08-03T13:35:49;8.35;;;3.55;;
43771;SDS011;59066;54.782;32.024;2022-08-03T13:38:17;10.65;;;3.92;;
43771;SDS011;59066;54.782;32.024;2022-08-03T13:40:47;17.98;;;4.22;;
43771;SDS011;59066;54.782;32.024;2022-08-03T13:43:18;12.60;;;5.63;;
43771;SDS011;59066;54.782;32.024;2022-08-03T13:45:48;14.63;;;4.10;;
43771;SDS011;59066;54.782;32.024;2022-08-03T13:48:20;11.27;;;4.18;;
43771;SDS011;59066;54.782;32.024;2022-08-03T13:51:01;8.57;;;3.55;;
43771;SDS011;59066;54.782;32.024;2022-08-03T13:53:31;13.05;;;3.83;;
43771;SDS011;59066;54.782;32.024;2022-08-03T13:55:58;6.68;;;3.50;;
43771;SDS011;59066;54.782;32.024;2022-08-03T13:58:25;7.85;;;3.97;;
43771;SDS011;59066;54.782;32.024;2022-08-03T14:00:53;8.90;;;3.83;;
43771;SDS011;59066;54.782;32.024;2022-08-03T14:03:27;15.43;;;4.43;;
43771;SDS011;59066;54.782;32.024;2022-08-03T14:05:55;6.10;;;3.67;;
43771;SDS011;59066;54.782;32.024;2022-08-03T14:08:22;10.02;;;4.10;;
43771;SDS011;59066;54.782;32.024;2022-08-03T14:10:52;10.50;;;4.60;;
43771;SDS011;59066;54.782;32.024;2022-08-03T14:13:20;10.57;;;5.18;;
43771;SDS011;59066;54.782;32.024;2022-08-03T14:15:48;10.55;;;3.97;;
43771;SDS011;59066;54.782;32.024;2022-08-03T14:18:20;7.13;;;4.32;;
43771;SDS011;59066;54.782;32.024;2022-08-03T14:20:53;5.43;;;4.25;;
43771;SDS011;59066;54.782;32.024;2022-08-03T14:23:22;7.65;;;3.65;;
43771;SDS011;59066;54.782;32.024;2022-08-03T14:25:49;12.02;;;4.13;;
43771;SDS011;59066;54.782;32.024;2022-08-03T14:28:19;12.10;;;5.93;;
43771;SDS011;59066;54.782;32.024;2022-08-03T14:30:51;11.85;;;3.92;;
43771;SDS011;59066;54.782;32.024;2022-08-03T14:33:20;8.55;;;3.95;;
43771;SDS011;59066;54.782;32.024;2022-08-03T14:35:49;8.52;;;4.00;;
43771;SDS011;59066;54.782;32.024;2022-08-03T14:38:19;5.38;;;4.07;;
43771;SDS011;59066;54.782;32.024;2022-08-03T14:40:47;9.38;;;3.65;;
43771;SDS011;59066;54.782;32.024;2022-08-03T14:43:15;11.70;;;3.85;;
43771;SDS011;59066;54.782;32.024;2022-08-03T14:45:49;8.20;;;4.60;;
43771;SDS011;59066;54.782;32.024;2022-08-03T14:48:19;13.52;;;9.60;;
43771;SDS011;59066;54.782;32.024;2022-08-03T14:51:08;10.57;;;3.90;;
43771;SDS011;59066;54.782;32.024;2022-08-03T14:53:36;11.40;;;4.15;;
43771;SDS011;59066;54.782;32.024;2022-08-03T14:56:03;7.85;;;3.67;;
43771;SDS011;59066;54.782;32.024;2022-08-03T14:58:35;8.95;;;3.75;;
43771;SDS011;59066;54.782;32.024;2022-08-03T15:01:03;19.15;;;4.18;;
43771;SDS011;59066;54.782;32.024;2022-08-03T15:03:50;7.47;;;3.40;;
43771;SDS011;59066;54.782;32.024;2022-08-03T15:06:18;8.73;;;3.63;;
43771;SDS011;59066;54.782;32.024;2022-08-03T15:08:45;5.70;;;3.20;;
43771;SDS011;59066;54.782;32.024;2022-08-03T15:11:35;6.80;;;4.07;;
43771;SDS011;59066;54.782;32.024;2022-08-03T15:14:03;7.70;;;3.30;;
43771;SDS011;59066;54.782;32.024;2022-08-03T15:16:34;7.82;;;3.38;;
43771;SDS011;59066;54.782;32.024;2022-08-03T15:22:07;7.43;;;3.33;;
43771;SDS011;59066;54.782;32.024;2022-08-03T15:24:35;7.60;;;3.60;;
43771;SDS011;59066;54.782;32.024;2022-08-03T15:27:02;7.30;;;4.18;;
43771;SDS011;59066;54.782;32.024;2022-08-03T15:29:31;14.82;;;4.10;;
43771;SDS011;59066;54.782;32.024;2022-08-03T15:32:19;4.82;;;3.53;;
43771;SDS011;59066;54.782;32.024;2022-08-03T15:34:47;7.97;;;3.88;;
43771;SDS011;59066;54.782;32.024;2022-08-03T15:37:15;9.55;;;3.60;;
43771;SDS011;59066;54.782;32.024;2022-08-03T15:39:43;10.48;;;4.10;;
43771;SDS011;59066;54.782;32.024;2022-08-03T15:42:24;8.52;;;3.70;;
43771;SDS011;59066;54.782;32.024;2022-08-03T15:44:51;7.55;;;4.22;;
43771;SDS011;59066;54.782;32.024;2022-08-03T15:47:19;6.95;;;3.90;;
43771;SDS011;59066;54.782;32.024;2022-08-03T15:49:47;10.52;;;4.38;;
43771;SDS011;59066;54.782;32.024;2022-08-03T15:52:14;10.07;;;4.47;;
43771;SDS011;59066;54.782;32.024;2022-08-03T15:54:44;8.70;;;4.15;;
43771;SDS011;59066;54.782;32.024;2022-08-03T15:57:11;8.25;;;5.00;;
43771;SDS011;59066;54.782;32.024;2022-08-03T15:59:57;8.90;;;4.20;;
43771;SDS011;59066;54.782;32.024;2022-08-03T16:02:25;6.63;;;3.83;;
43771;SDS011;59066;54.782;32.024;2022-08-03T16:04:52;6.35;;;3.65;;
43771;SDS011;59066;54.782;32.024;2022-08-03T16:07:19;7.28;;;3.95;;